Time;durP1;ratioP1;P1;durP2;ratioP2;P2;SDS_P1;SDS_P2;PMS_P1;PMS_P2;Temp;Humidity;BMP_temperature;BMP_pressure;BME280_temperature;BME280_humidity;BME280_pressure;Samples;Min_cycle;Max_cycle;Signal;HPM_P1;HPM_P2
2024/01/19 00:02:18;;;;;;;5.80;5.20;;;;;;;;;;5116825;28;20239;-64
2024/01/19 00:04:46;;;;;;;5.22;4.72;;;;;;;;;;5117024;28;20207;-64
2024/01/19 00:07:14;;;;;;;5.68;4.85;;;;;;;;;;5116391;28;20603;-64
2024/01/19 00:09:42;;;;;;;5.25;4.75;;;;;;;;;;5116922;28;20203;-64
2024/01/19 00:12:10;;;;;;;5.22;4.68;;;;;;;;;;5116421;28;20249;-64
2024/01/19 00:14:39;;;;;;;5.03;4.53;;;;;;;;;;5116725;28;20260;-64
2024/01/19 00:17:06;;;;;;;5.20;4.70;;;;;;;;;;5116803;28;20214;-64
2024/01/19 00:19:34;;;;;;;4.93;4.32;;;;;;;;;;5117061;28;20479;-64
2024/01/19 00:22:01;;;;;;;5.13;4.63;;;;;;;;;;5116648;28;20203;-64
2024/01/19 00:24:29;;;;;;;4.97;4.47;;;;;;;;;;5117009;28;20214;-64
2024/01/19 00:26:57;;;;;;;4.80;4.32;;;;;;;;;;5116349;28;20203;-64
2024/01/19 00:29:25;;;;;;;5.32;4.82;;;;;;;;;;5116299;28;20472;-64
2024/01/19 00:31:54;;;;;;;5.82;4.90;;;;;;;;;;5116301;28;20214;-64
2024/01/19 00:34:22;;;;;;;6.80;4.70;;;;;;;;;;5116151;28;20203;-64
2024/01/19 00:36:50;;;;;;;4.93;4.43;;;;;;;;;;5116899;28;20210;-64
2024/01/19 00:39:17;;;;;;;5.50;4.32;;;;;;;;;;5116184;28;20206;-64
2024/01/19 00:41:45;;;;;;;5.00;4.50;;;;;;;;;;5116403;28;20604;-64
2024/01/19 00:44:13;;;;;;;4.82;4.43;;;;;;;;;;5116587;28;20260;-64
2024/01/19 00:46:40;;;;;;;4.47;4.07;;;;;;;;;;5115847;28;20236;-64
2024/01/19 00:49:09;;;;;;;4.72;4.22;;;;;;;;;;5116662;28;20264;-64
2024/01/19 00:51:37;;;;;;;4.68;4.20;;;;;;;;;;5116282;28;20211;-64
2024/01/19 00:54:05;;;;;;;4.97;4.47;;;;;;;;;;5117211;28;20202;-64
2024/01/19 00:56:33;;;;;;;5.20;4.70;;;;;;;;;;5120652;28;20198;-64
2024/01/19 00:59:00;;;;;;;5.13;4.63;;;;;;;;;;5120421;28;20199;-64
2024/01/19 01:01:27;;;;;;;5.10;4.60;;;;;;;;;;5120578;28;20239;-64
2024/01/19 01:03:58;;;;;;;4.55;4.13;;;;;;;;;;5119899;28;20575;-64
2024/01/19 01:06:27;;;;;;;5.32;4.40;;;;;;;;;;5120331;28;20203;-65
2024/01/19 01:08:55;;;;;;;4.88;4.47;;;;;;;;;;5119754;28;20326;-64
2024/01/19 01:11:22;;;;;;;4.80;4.30;;;;;;;;;;5120259;28;20199;-64
2024/01/19 01:13:50;;;;;;;5.15;4.65;;;;;;;;;;5120139;28;20583;-64
2024/01/19 01:16:17;;;;;;;4.35;3.95;;;;;;;;;;5119213;28;20199;-64
2024/01/19 01:18:45;;;;;;;4.53;4.13;;;;;;;;;;5119205;28;20199;-64
2024/01/19 01:21:13;;;;;;;4.28;3.88;;;;;;;;;;5119093;28;20202;-64
2024/01/19 01:23:42;;;;;;;4.60;4.20;;;;;;;;;;5119287;28;20210;-64
2024/01/19 01:26:09;;;;;;;5.00;4.50;;;;;;;;;;5119495;28;20198;-64
2024/01/19 01:28:36;;;;;;;4.97;4.57;;;;;;;;;;5119318;28;20287;-64
2024/01/19 01:31:04;;;;;;;4.50;4.10;;;;;;;;;;5119739;28;20248;-64
2024/01/19 01:33:32;;;;;;;4.53;4.13;;;;;;;;;;5119046;28;20649;-64
2024/01/19 01:35:59;;;;;;;4.63;4.18;;;;;;;;;;5119454;28;20198;-64
2024/01/19 01:38:27;;;;;;;4.65;4.18;;;;;;;;;;5119488;28;20302;-63
2024/01/19 01:40:56;;;;;;;3.88;3.58;;;;;;;;;;5119814;28;20203;-64
2024/01/19 01:43:24;;;;;;;4.72;4.32;;;;;;;;;;5119436;28;20210;-64
2024/01/19 01:45:52;;;;;;;4.85;4.30;;;;;;;;;;5119409;28;20210;-63
2024/01/19 01:48:20;;;;;;;4.38;3.97;;;;;;;;;;5119028;28;20261;-63
2024/01/19 01:50:48;;;;;;;4.13;3.72;;;;;;;;;;5119288;28;20663;-63
2024/01/19 01:53:18;;;;;;;4.28;3.88;;;;;;;;;;5119791;28;20618;-64
2024/01/19 01:55:46;;;;;;;4.25;3.85;;;;;;;;;;5118906;28;20237;-64
2024/01/19 01:58:15;;;;;;;4.28;3.88;;;;;;;;;;5119202;28;20234;-64
2024/01/19 02:00:43;;;;;;;4.43;4.03;;;;;;;;;;5118629;28;20239;-64
2024/01/19 02:03:11;;;;;;;3.72;3.42;;;;;;;;;;5118864;28;20211;-64
2024/01/19 02:05:39;;;;;;;3.90;3.60;;;;;;;;;;5118645;28;20644;-64
2024/01/19 02:08:07;;;;;;;4.03;3.70;;;;;;;;;;5118862;28;20261;-64
2024/01/19 02:10:35;;;;;;;4.35;3.95;;;;;;;;;;5119159;28;20237;-64
2024/01/19 02:13:02;;;;;;;4.03;3.72;;;;;;;;;;5118837;28;20209;-64
2024/01/19 02:15:34;;;;;;;4.20;3.80;;;;;;;;;;5119287;28;20646;-64
2024/01/19 02:18:01;;;;;;;3.85;3.47;;;;;;;;;;5118610;28;20253;-64
2024/01/19 02:20:29;;;;;;;3.65;3.30;;;;;;;;;;5118400;28;20213;-64
2024/01/19 02:22:56;;;;;;;4.20;3.60;;;;;;;;;;5118309;28;20202;-64
2024/01/19 02:25:26;;;;;;;3.90;3.60;;;;;;;;;;5119070;28;20613;-64
2024/01/19 02:27:53;;;;;;;4.13;3.72;;;;;;;;;;5118402;28;20202;-64
2024/01/19 02:30:21;;;;;;;3.92;3.60;;;;;;;;;;5118802;28;20263;-64
2024/01/19 02:32:48;;;;;;;3.83;3.53;;;;;;;;;;5118362;28;20202;-64
2024/01/19 02:35:16;;;;;;;3.70;3.40;;;;;;;;;;5118489;28;20243;-64
2024/01/19 02:37:43;;;;;;;3.90;3.30;;;;;;;;;;5117908;28;20229;-63
2024/01/19 02:40:11;;;;;;;3.58;3.28;;;;;;;;;;5118463;28;20646;-64
2024/01/19 02:42:40;;;;;;;4.18;3.78;;;;;;;;;;5118557;28;20210;-64
2024/01/19 02:45:08;;;;;;;3.80;3.40;;;;;;;;;;5118361;28;20217;-64
2024/01/19 02:47:35;;;;;;;3.42;3.13;;;;;;;;;;5118019;28;20674;-64
2024/01/19 02:50:03;;;;;;;3.83;3.53;;;;;;;;;;5118334;28;20313;-64
2024/01/19 02:52:33;;;;;;;3.38;3.08;;;;;;;;;;5117499;28;20293;-64
2024/01/19 02:55:01;;;;;;;3.40;3.10;;;;;;;;;;5118328;28;20242;-64
2024/01/19 02:57:28;;;;;;;3.30;3.00;;;;;;;;;;5117508;28;20268;-64
2024/01/19 02:59:57;;;;;;;3.58;3.28;;;;;;;;;;5117635;28;20615;-64
2024/01/19 03:02:25;;;;;;;3.95;3.65;;;;;;;;;;5117696;28;20203;-64
2024/01/19 03:04:52;;;;;;;3.88;3.50;;;;;;;;;;5117572;28;20256;-64
2024/01/19 03:07:20;;;;;;;3.58;3.22;;;;;;;;;;5118400;28;20206;-64
2024/01/19 03:09:47;;;;;;;3.75;3.42;;;;;;;;;;5117425;28;20258;-64
2024/01/19 03:12:15;;;;;;;3.58;3.28;;;;;;;;;;5117673;28;20218;-64
2024/01/19 03:14:42;;;;;;;3.17;2.97;;;;;;;;;;5117826;28;20211;-64
2024/01/19 03:17:11;;;;;;;3.70;3.40;;;;;;;;;;5116451;28;20210;-64
2024/01/19 03:19:39;;;;;;;3.50;3.17;;;;;;;;;;5117034;28;20264;-64
2024/01/19 03:22:07;;;;;;;3.92;3.53;;;;;;;;;;5117395;28;20210;-63
2024/01/19 03:24:34;;;;;;;3.25;2.95;;;;;;;;;;5116438;28;20202;-63
2024/01/19 03:27:02;;;;;;;3.47;3.17;;;;;;;;;;5117033;28;20661;-63
2024/01/19 03:29:29;;;;;;;2.95;2.75;;;;;;;;;;5116947;28;20234;-63
2024/01/19 03:31:57;;;;;;;3.55;3.25;;;;;;;;;;5116773;28;20203;-63
2024/01/19 03:34:26;;;;;;;3.28;2.97;;;;;;;;;;5117239;28;20211;-64
2024/01/19 03:36:55;;;;;;;3.42;3.13;;;;;;;;;;5116543;28;20215;-63
2024/01/19 03:39:23;;;;;;;3.55;3.25;;;;;;;;;;5117090;28;20199;-63
2024/01/19 03:41:51;;;;;;;3.38;3.08;;;;;;;;;;5108824;28;20203;-63
2024/01/19 03:44:18;;;;;;;3.30;3.00;;;;;;;;;;5117125;28;20211;-64
2024/01/19 03:46:46;;;;;;;3.30;3.00;;;;;;;;;;5117038;28;20203;-64
2024/01/19 03:49:13;;;;;;;3.60;3.30;;;;;;;;;;5117492;28;20227;-64
2024/01/19 03:51:56;;;;;;;3.33;3.03;;;;;;;;;;5116906;28;20859;-64
2024/01/19 03:54:25;;;;;;;3.45;3.15;;;;;;;;;;5116986;28;20203;-64
2024/01/19 03:56:52;;;;;;;2.90;2.70;;;;;;;;;;5116806;28;20230;-64
2024/01/19 03:59:20;;;;;;;3.55;3.25;;;;;;;;;;5116379;28;20485;-64
2024/01/19 04:01:48;;;;;;;3.47;3.17;;;;;;;;;;5116722;28;20303;-64
2024/01/19 04:04:15;;;;;;;3.42;3.13;;;;;;;;;;5116841;28;20203;-64
2024/01/19 04:06:43;;;;;;;3.30;3.00;;;;;;;;;;5116442;28;20313;-63
2024/01/19 04:09:10;;;;;;;3.20;2.90;;;;;;;;;;5116935;28;20227;-63
2024/01/19 04:11:39;;;;;;;3.33;3.03;;;;;;;;;;5116487;28;20211;-63
2024/01/19 04:14:07;;;;;;;3.35;3.13;;;;;;;;;;5116343;28;20211;-63
2024/01/19 04:16:34;;;;;;;3.33;3.03;;;;;;;;;;5116462;28;20255;-63
2024/01/19 04:19:02;;;;;;;2.97;2.78;;;;;;;;;;5116612;28;20194;-64
2024/01/19 04:21:30;;;;;;;3.30;3.00;;;;;;;;;;5116366;28;20257;-64
2024/01/19 04:23:57;;;;;;;3.50;3.20;;;;;;;;;;5116170;28;20209;-64
2024/01/19 04:26:25;;;;;;;2.78;2.58;;;;;;;;;;5115856;28;20203;-64
2024/01/19 04:28:54;;;;;;;3.17;2.90;;;;;;;;;;5118853;28;20313;-64
2024/01/19 04:31:22;;;;;;;3.28;2.97;;;;;;;;;;5120135;28;20207;-64
2024/01/19 04:33:49;;;;;;;3.47;3.17;;;;;;;;;;5120648;28;20203;-64
2024/01/19 04:36:17;;;;;;;3.17;2.88;;;;;;;;;;5119963;28;20267;-64
2024/01/19 04:38:48;;;;;;;3.40;3.10;;;;;;;;;;5120016;28;20199;-64
2024/01/19 04:41:17;;;;;;;3.63;3.33;;;;;;;;;;5119804;28;20267;-64
2024/01/19 04:43:44;;;;;;;2.95;2.75;;;;;;;;;;5120017;28;20209;-64
2024/01/19 04:46:13;;;;;;;2.70;2.50;;;;;;;;;;5119783;28;20520;-64
2024/01/19 04:48:41;;;;;;;2.95;2.75;;;;;;;;;;5119559;28;20223;-64
2024/01/19 04:51:08;;;;;;;3.35;3.05;;;;;;;;;;5118979;28;20203;-63
2024/01/19 04:53:36;;;;;;;3.20;2.90;;;;;;;;;;5119446;28;20210;-63
2024/01/19 04:56:06;;;;;;;2.97;2.67;;;;;;;;;;5119824;28;20207;-63
2024/01/19 04:58:33;;;;;;;3.10;2.80;;;;;;;;;;5119948;28;20213;-63
2024/01/19 05:01:01;;;;;;;3.20;2.90;;;;;;;;;;5119172;28;20241;-63
2024/01/19 05:03:29;;;;;;;3.30;3.00;;;;;;;;;;5119072;28;20563;-63
2024/01/19 05:05:57;;;;;;;3.28;3.00;;;;;;;;;;5119421;28;20199;-64
2024/01/19 05:08:24;;;;;;;3.10;2.90;;;;;;;;;;5119480;28;20706;-63
2024/01/19 05:10:52;;;;;;;3.03;2.83;;;;;;;;;;5119799;28;20227;-63
2024/01/19 05:13:19;;;;;;;3.10;2.90;;;;;;;;;;5119313;28;20495;-63
2024/01/19 05:15:46;;;;;;;3.20;2.90;;;;;;;;;;5119325;28;20195;-63
2024/01/19 05:18:14;;;;;;;3.30;3.00;;;;;;;;;;5119364;28;20203;-63
2024/01/19 05:20:43;;;;;;;3.33;3.03;;;;;;;;;;5119449;28;20302;-63
2024/01/19 05:23:10;;;;;;;3.15;2.85;;;;;;;;;;5118936;28;20207;-63
2024/01/19 05:25:38;;;;;;;2.97;2.78;;;;;;;;;;5119092;28;20210;-63
2024/01/19 05:28:05;;;;;;;3.30;3.00;;;;;;;;;;5119521;28;20213;-63
2024/01/19 05:30:32;;;;;;;3.35;3.05;;;;;;;;;;5118811;28;20222;-63
2024/01/19 05:33:00;;;;;;;2.80;2.60;;;;;;;;;;5118657;28;20586;-63
2024/01/19 05:35:27;;;;;;;3.38;3.08;;;;;;;;;;5118316;28;20217;-63
2024/01/19 05:37:56;;;;;;;3.00;2.80;;;;;;;;;;5117704;28;20203;-63
2024/01/19 05:40:24;;;;;;;3.22;2.95;;;;;;;;;;5118151;28;20591;-63
2024/01/19 05:42:51;;;;;;;3.25;2.95;;;;;;;;;;5118286;28;20215;-63
2024/01/19 05:45:18;;;;;;;3.08;2.88;;;;;;;;;;5118035;28;20214;-63
2024/01/19 05:47:46;;;;;;;2.72;2.53;;;;;;;;;;5118058;28;20215;-63
2024/01/19 05:50:13;;;;;;;3.08;2.80;;;;;;;;;;5117039;28;20223;-63
2024/01/19 05:52:41;;;;;;;3.10;2.80;;;;;;;;;;5117480;28;20211;-64
2024/01/19 05:55:10;;;;;;;3.10;2.90;;;;;;;;;;5117248;28;20583;-64
2024/01/19 05:57:37;;;;;;;3.63;3.33;;;;;;;;;;5116853;28;20207;-64
2024/01/19 06:00:06;;;;;;;3.15;2.95;;;;;;;;;;5117137;28;20326;-64
2024/01/19 06:02:33;;;;;;;3.72;3.30;;;;;;;;;;5117799;28;20207;-64
2024/01/19 06:05:01;;;;;;;3.25;2.95;;;;;;;;;;5117822;28;20230;-64
2024/01/19 06:07:30;;;;;;;3.28;3.05;;;;;;;;;;5118219;28;20203;-64
2024/01/19 06:09:57;;;;;;;3.80;2.85;;;;;;;;;;5116592;28;20275;-64
2024/01/19 06:12:26;;;;;;;3.30;2.70;;;;;;;;;;5117512;28;20198;-64
2024/01/19 06:14:53;;;;;;;3.05;2.83;;;;;;;;;;5117479;28;20282;-64
2024/01/19 06:17:21;;;;;;;3.10;2.80;;;;;;;;;;5116651;28;20454;-64
2024/01/19 06:19:48;;;;;;;3.25;2.95;;;;;;;;;;5115951;28;20742;-64
2024/01/19 06:22:15;;;;;;;2.92;2.65;;;;;;;;;;5116613;28;20276;-64
2024/01/19 06:24:43;;;;;;;3.50;3.20;;;;;;;;;;5117019;28;20207;-64
2024/01/19 06:27:10;;;;;;;3.10;2.90;;;;;;;;;;5117067;28;20195;-64
2024/01/19 06:29:39;;;;;;;3.30;3.00;;;;;;;;;;5117529;28;20234;-64
2024/01/19 06:32:07;;;;;;;3.60;3.03;;;;;;;;;;5117384;28;20203;-63
2024/01/19 06:34:37;;;;;;;3.67;2.70;;;;;;;;;;5117912;28;20493;-63
2024/01/19 06:37:05;;;;;;;3.45;3.15;;;;;;;;;;5117977;28;20200;-63
2024/01/19 06:39:33;;;;;;;3.05;2.75;;;;;;;;;;5117284;28;20199;-63
2024/01/19 06:42:00;;;;;;;3.22;2.92;;;;;;;;;;5116911;28;20203;-63
2024/01/19 06:44:27;;;;;;;2.88;2.60;;;;;;;;;;5116403;28;20489;-63
2024/01/19 06:46:56;;;;;;;3.00;2.80;;;;;;;;;;5117633;28;20554;-63
2024/01/19 06:49:23;;;;;;;2.95;2.75;;;;;;;;;;5116058;28;20234;-63
2024/01/19 06:51:51;;;;;;;3.50;3.20;;;;;;;;;;5114566;28;20210;-63
2024/01/19 06:54:18;;;;;;;3.05;2.60;;;;;;;;;;5116082;28;20494;-64
2024/01/19 06:56:45;;;;;;;4.75;3.05;;;;;;;;;;5116831;28;20198;-64
2024/01/19 06:59:13;;;;;;;4.28;3.05;;;;;;;;;;5116339;28;20195;-64
2024/01/19 07:01:40;;;;;;;2.75;2.50;;;;;;;;;;5116357;28;20245;-64
2024/01/19 07:04:09;;;;;;;3.13;2.83;;;;;;;;;;5116911;28;20224;-64
2024/01/19 07:06:37;;;;;;;3.05;2.75;;;;;;;;;;5116968;28;20195;-64
2024/01/19 07:09:04;;;;;;;2.60;2.40;;;;;;;;;;5116674;28;20203;-64
2024/01/19 07:11:32;;;;;;;2.90;2.70;;;;;;;;;;5115211;28;20199;-64
2024/01/19 07:13:59;;;;;;;3.35;3.05;;;;;;;;;;5116075;28;20213;-64
2024/01/19 07:16:26;;;;;;;3.55;3.25;;;;;;;;;;5116494;28;20210;-64
2024/01/19 07:18:54;;;;;;;3.83;3.38;;;;;;;;;;5116979;28;20484;-64
2024/01/19 07:21:23;;;;;;;4.07;3.08;;;;;;;;;;5116397;28;20568;-63
2024/01/19 07:23:51;;;;;;;3.30;3.00;;;;;;;;;;5108968;28;20203;-64
2024/01/19 07:26:19;;;;;;;2.83;2.63;;;;;;;;;;5117095;28;20205;-64
2024/01/19 07:28:47;;;;;;;3.40;3.10;;;;;;;;;;5117334;28;20203;-64
2024/01/19 07:31:14;;;;;;;3.05;2.72;;;;;;;;;;5116685;28;20269;-64
2024/01/19 07:33:41;;;;;;;3.15;2.85;;;;;;;;;;5117127;28;20205;-64
2024/01/19 07:36:09;;;;;;;3.15;2.92;;;;;;;;;;5117130;28;20203;-64
2024/01/19 07:38:38;;;;;;;3.63;3.33;;;;;;;;;;5116875;28;20463;-64
2024/01/19 07:41:06;;;;;;;2.83;2.63;;;;;;;;;;5117149;28;20568;-64
2024/01/19 07:43:34;;;;;;;3.55;3.25;;;;;;;;;;5116681;28;20501;-64
2024/01/19 07:46:01;;;;;;;3.45;3.15;;;;;;;;;;5117021;28;20209;-64
2024/01/19 07:48:28;;;;;;;3.20;2.90;;;;;;;;;;5116671;28;20264;-64
2024/01/19 07:50:56;;;;;;;3.53;3.00;;;;;;;;;;5116216;28;20241;-64
2024/01/19 07:53:23;;;;;;;4.15;3.08;;;;;;;;;;5115089;28;20207;-63
2024/01/19 07:55:52;;;;;;;3.22;2.92;;;;;;;;;;5116178;28;20203;-64
2024/01/19 07:58:20;;;;;;;3.40;3.10;;;;;;;;;;5116472;28;20203;-64
2024/01/19 08:00:47;;;;;;;3.00;2.80;;;;;;;;;;5116131;28;20223;-64
2024/01/19 08:03:15;;;;;;;3.40;3.10;;;;;;;;;;5115118;28;20199;-64
2024/01/19 08:05:43;;;;;;;3.33;3.03;;;;;;;;;;5115687;28;20203;-64
2024/01/19 08:08:10;;;;;;;3.00;2.70;;;;;;;;;;5115928;28;20209;-64
2024/01/19 08:10:37;;;;;;;3.88;3.38;;;;;;;;;;5115671;28;20233;-64
2024/01/19 08:13:06;;;;;;;3.42;3.13;;;;;;;;;;5115875;28;20203;-64
2024/01/19 08:15:34;;;;;;;3.40;2.85;;;;;;;;;;5116626;28;20211;-64
2024/01/19 08:18:02;;;;;;;3.45;3.15;;;;;;;;;;5115756;28;20655;-64
2024/01/19 08:20:31;;;;;;;3.58;3.28;;;;;;;;;;5116058;28;20213;-64
2024/01/19 08:23:00;;;;;;;3.20;2.92;;;;;;;;;;5115803;28;20203;-64
2024/01/19 08:25:28;;;;;;;3.17;2.97;;;;;;;;;;5116612;28;20203;-63
2024/01/19 08:27:55;;;;;;;3.25;2.95;;;;;;;;;;5115821;28;20578;-64
2024/01/19 08:30:24;;;;;;;3.50;3.20;;;;;;;;;;5115704;28;20226;-64
2024/01/19 08:32:52;;;;;;;3.65;3.35;;;;;;;;;;5116205;28;20203;-64
2024/01/19 08:35:19;;;;;;;3.40;3.10;;;;;;;;;;5115707;28;20209;-64
2024/01/19 08:37:46;;;;;;;3.67;3.38;;;;;;;;;;5115966;28;20203;-64
2024/01/19 08:40:14;;;;;;;4.00;3.60;;;;;;;;;;5115363;28;20587;-64
2024/01/19 08:42:41;;;;;;;3.40;3.10;;;;;;;;;;5115705;28;20302;-64
2024/01/19 08:45:09;;;;;;;3.50;3.20;;;;;;;;;;5115967;28;20353;-64
2024/01/19 08:47:38;;;;;;;3.63;3.28;;;;;;;;;;5116192;28;20209;-64
2024/01/19 08:50:06;;;;;;;4.07;3.67;;;;;;;;;;5115666;28;20234;-64
2024/01/19 08:52:33;;;;;;;4.30;3.65;;;;;;;;;;5115942;28;20285;-64
2024/01/19 08:55:01;;;;;;;3.75;3.45;;;;;;;;;;5115921;28;20481;-64
2024/01/19 08:57:28;;;;;;;3.78;3.38;;;;;;;;;;5116014;28;20214;-64
2024/01/19 08:59:55;;;;;;;3.70;3.40;;;;;;;;;;5116135;28;20666;-64
2024/01/19 09:02:23;;;;;;;3.53;3.22;;;;;;;;;;5116112;28;20203;-64
2024/01/19 09:04:52;;;;;;;3.80;3.50;;;;;;;;;;5116426;28;20229;-63
2024/01/19 09:07:19;;;;;;;3.30;3.00;;;;;;;;;;5115775;28;20632;-63
2024/01/19 09:09:47;;;;;;;3.83;3.40;;;;;;;;;;5114600;28;20203;-63
2024/01/19 09:12:14;;;;;;;3.60;3.30;;;;;;;;;;5115973;28;20217;-63
2024/01/19 09:14:41;;;;;;;3.83;3.50;;;;;;;;;;5116109;28;20229;-63
2024/01/19 09:17:09;;;;;;;3.90;3.50;;;;;;;;;;5119324;28;20203;-63
2024/01/19 09:19:36;;;;;;;3.60;3.30;;;;;;;;;;5118828;28;20293;-64
2024/01/19 09:22:05;;;;;;;3.53;3.22;;;;;;;;;;5117668;28;20195;-64
2024/01/19 09:24:33;;;;;;;3.63;3.33;;;;;;;;;;5118449;28;20610;-64
2024/01/19 09:27:00;;;;;;;3.75;3.45;;;;;;;;;;5118855;28;20289;-64
2024/01/19 09:29:27;;;;;;;3.70;3.40;;;;;;;;;;5118608;28;20589;-64
2024/01/19 09:31:55;;;;;;;3.92;3.50;;;;;;;;;;5119313;28;20237;-64
2024/01/19 09:34:22;;;;;;;3.75;3.45;;;;;;;;;;5119064;28;20299;-64
2024/01/19 09:36:50;;;;;;;3.63;3.33;;;;;;;;;;5119367;28;20203;-64
2024/01/19 09:39:20;;;;;;;3.70;3.35;;;;;;;;;;5118637;28;20203;-64
2024/01/19 09:41:48;;;;;;;4.45;3.60;;;;;;;;;;5118082;28;20199;-64
2024/01/19 09:44:19;;;;;;;4.82;4.05;;;;;;;;;;5118433;28;20202;-64
2024/01/19 09:47:03;;;;;;;4.00;3.60;;;;;;;;;;5118213;28;20257;-64
2024/01/19 09:49:36;;;;;;;4.18;3.78;;;;;;;;;;5117962;28;20217;-64
2024/01/19 09:52:04;;;;;;;3.90;3.50;;;;;;;;;;5117790;28;20476;-64
2024/01/19 09:54:34;;;;;;;4.40;4.00;;;;;;;;;;5117935;28;20206;-64
2024/01/19 09:57:02;;;;;;;3.80;3.28;;;;;;;;;;5118237;28;20203;-64
2024/01/19 09:59:31;;;;;;;4.45;4.05;;;;;;;;;;5117700;28;20199;-63
2024/01/19 10:01:59;;;;;;;4.40;3.60;;;;;;;;;;5117895;28;20219;-63
2024/01/19 10:04:26;;;;;;;5.10;4.50;;;;;;;;;;5117687;28;20214;-63
2024/01/19 10:06:54;;;;;;;4.53;4.07;;;;;;;;;;5118342;28;20491;-64
2024/01/19 10:09:22;;;;;;;5.65;4.35;;;;;;;;;;5117589;28;20198;-64
2024/01/19 10:11:52;;;;;;;5.60;3.85;;;;;;;;;;5117438;28;20223;-64
2024/01/19 10:14:20;;;;;;;4.72;4.28;;;;;;;;;;5117379;28;20214;-64
2024/01/19 10:16:49;;;;;;;4.35;3.95;;;;;;;;;;5117534;28;20242;-64
2024/01/19 10:19:20;;;;;;;5.05;4.35;;;;;;;;;;5117552;28;20213;-64
2024/01/19 10:21:47;;;;;;;4.20;3.80;;;;;;;;;;5117520;28;20206;-64
2024/01/19 10:24:15;;;;;;;5.15;4.65;;;;;;;;;;5118038;28;20207;-64
2024/01/19 10:26:43;;;;;;;4.90;4.40;;;;;;;;;;5117452;28;20869;-64
2024/01/19 10:29:12;;;;;;;4.97;4.45;;;;;;;;;;5117476;28;20199;-65
2024/01/19 10:31:40;;;;;;;4.85;4.35;;;;;;;;;;5117428;28;20229;-64
2024/01/19 10:34:17;;;;;;;5.85;4.47;;;;;;;;;;5116802;28;20206;-64
2024/01/19 10:36:45;;;;;;;5.05;4.20;;;;;;;;;;5117887;28;20202;-64
2024/01/19 10:39:19;;;;;;;4.60;4.20;;;;;;;;;;5117195;28;20210;-64
2024/01/19 10:41:46;;;;;;;4.40;4.00;;;;;;;;;;5116845;28;20199;-63
2024/01/19 10:44:16;;;;;;;4.78;4.20;;;;;;;;;;5117115;28;20206;-64
2024/01/19 10:46:44;;;;;;;5.07;4.20;;;;;;;;;;5116410;28;20223;-64
2024/01/19 10:49:12;;;;;;;4.65;4.05;;;;;;;;;;5116208;28;20210;-64
2024/01/19 10:51:42;;;;;;;4.78;4.20;;;;;;;;;;5116124;28;20246;-64
2024/01/19 10:54:15;;;;;;;4.68;4.15;;;;;;;;;;5116918;28;20207;-64
2024/01/19 10:56:44;;;;;;;4.78;4.28;;;;;;;;;;5116238;28;20207;-64
2024/01/19 10:59:12;;;;;;;4.15;3.75;;;;;;;;;;5116112;28;20194;-64
2024/01/19 11:01:42;;;;;;;4.50;3.85;;;;;;;;;;5115566;28;20226;-64
2024/01/19 11:04:10;;;;;;;4.30;3.90;;;;;;;;;;5115822;28;20202;-64
2024/01/19 11:06:38;;;;;;;4.68;4.15;;;;;;;;;;5116034;28;20199;-64
2024/01/19 11:09:06;;;;;;;4.85;4.35;;;;;;;;;;5115628;28;20203;-64
2024/01/19 11:11:35;;;;;;;4.35;3.95;;;;;;;;;;5115890;28;20234;-64
2024/01/19 11:14:05;;;;;;;4.15;3.55;;;;;;;;;;5115557;28;20317;-64
2024/01/19 11:16:36;;;;;;;4.20;3.67;;;;;;;;;;5115692;28;20220;-64
2024/01/19 11:19:05;;;;;;;4.70;4.07;;;;;;;;;;5115373;28;20213;-64
2024/01/19 11:21:33;;;;;;;4.50;4.07;;;;;;;;;;5116290;28;20203;-64
2024/01/19 11:24:00;;;;;;;4.30;3.90;;;;;;;;;;5114994;28;20295;-64
2024/01/19 11:26:30;;;;;;;5.60;4.15;;;;;;;;;;5115611;28;20546;-64
2024/01/19 11:29:00;;;;;;;4.43;4.03;;;;;;;;;;5115610;28;20203;-64
2024/01/19 11:31:30;;;;;;;4.60;3.95;;;;;;;;;;5115768;28;20282;-64
2024/01/19 11:33:58;;;;;;;4.70;3.90;;;;;;;;;;5115910;28;20233;-64
2024/01/19 11:36:43;;;;;;;4.60;3.78;;;;;;;;;;5114998;28;20479;-64
2024/01/19 11:39:13;;;;;;;4.38;3.97;;;;;;;;;;5113983;28;20465;-64
2024/01/19 11:41:46;;;;;;;4.32;3.92;;;;;;;;;;5115609;28;20206;-64
2024/01/19 11:44:29;;;;;;;4.78;4.00;;;;;;;;;;5115108;28;20722;-64
2024/01/19 11:46:56;;;;;;;4.07;3.65;;;;;;;;;;5098723;28;20203;-64
2024/01/19 11:49:42;;;;;;;4.40;4.00;;;;;;;;;;5114961;28;20306;-63
2024/01/19 11:52:37;;;;;;;4.43;4.03;;;;;;;;;;5115045;28;20223;-63
2024/01/19 11:55:19;;;;;;;4.40;3.95;;;;;;;;;;5115156;28;20203;-63
2024/01/19 11:57:48;;;;;;;4.20;3.80;;;;;;;;;;5113980;28;20210;-64
2024/01/19 12:00:16;;;;;;;3.95;3.55;;;;;;;;;;5115113;28;20239;-64
2024/01/19 12:02:43;;;;;;;4.35;3.90;;;;;;;;;;5114184;28;20220;-64
2024/01/19 12:05:12;;;;;;;4.72;3.90;;;;;;;;;;5115476;28;20203;-64
2024/01/19 12:07:41;;;;;;;4.30;3.90;;;;;;;;;;5115935;28;20494;-64
2024/01/19 12:10:09;;;;;;;4.25;3.85;;;;;;;;;;5115945;28;20202;-64
2024/01/19 12:12:38;;;;;;;5.43;4.25;;;;;;;;;;5116148;28;20227;-64
2024/01/19 12:15:08;;;;;;;4.72;4.07;;;;;;;;;;5114998;28;20195;-64
2024/01/19 12:17:37;;;;;;;3.97;3.58;;;;;;;;;;5114849;28;20213;-64
2024/01/19 12:20:06;;;;;;;3.92;3.60;;;;;;;;;;5114663;28;20234;-64
2024/01/19 12:22:34;;;;;;;4.82;4.38;;;;;;;;;;5115548;28;20208;-63
2024/01/19 12:25:13;;;;;;;4.28;3.88;;;;;;;;;;5114701;28;20199;-63
2024/01/19 12:27:40;;;;;;;4.43;3.92;;;;;;;;;;5114842;28;20206;-63
2024/01/19 12:30:13;;;;;;;4.30;3.75;;;;;;;;;;5114426;28;20199;-63
2024/01/19 12:32:40;;;;;;;4.40;4.00;;;;;;;;;;5115183;28;20223;-63
2024/01/19 12:35:08;;;;;;;4.25;3.85;;;;;;;;;;5115007;28;20203;-63
2024/01/19 12:37:36;;;;;;;3.90;3.50;;;;;;;;;;5114314;28;20253;-63
2024/01/19 12:40:13;;;;;;;4.13;3.72;;;;;;;;;;5114286;28;20203;-64
2024/01/19 12:42:41;;;;;;;4.32;3.65;;;;;;;;;;5113560;28;20489;-64
2024/01/19 12:45:09;;;;;;;4.68;4.10;;;;;;;;;;5114125;28;20195;-64
2024/01/19 12:47:42;;;;;;;3.80;3.40;;;;;;;;;;5114440;28;20211;-64
2024/01/19 12:50:10;;;;;;;3.70;3.40;;;;;;;;;;5115963;28;20203;-64
2024/01/19 12:52:37;;;;;;;3.83;3.47;;;;;;;;;;5118484;28;20262;-64
2024/01/19 12:55:06;;;;;;;4.28;3.80;;;;;;;;;;5118433;28;20203;-64
2024/01/19 12:57:33;;;;;;;4.00;3.60;;;;;;;;;;5117392;28;20207;-64
2024/01/19 13:00:08;;;;;;;4.70;4.10;;;;;;;;;;5118677;28;20198;-64
2024/01/19 13:02:36;;;;;;;4.10;3.70;;;;;;;;;;5118376;28;20433;-64
2024/01/19 13:05:04;;;;;;;4.20;3.80;;;;;;;;;;5118883;28;20202;-64
2024/01/19 13:07:32;;;;;;;4.68;3.92;;;;;;;;;;5118881;28;20202;-63
2024/01/19 13:10:03;;;;;;;4.05;3.40;;;;;;;;;;5118704;28;20238;-63
2024/01/19 13:12:30;;;;;;;4.20;3.83;;;;;;;;;;5117763;28;20236;-63
2024/01/19 13:15:04;;;;;;;4.70;4.22;;;;;;;;;;5118064;28;20195;-63
2024/01/19 13:17:32;;;;;;;4.10;3.67;;;;;;;;;;5117485;28;20248;-63
2024/01/19 13:19:59;;;;;;;3.72;3.38;;;;;;;;;;5117212;28;20209;-64
2024/01/19 13:22:28;;;;;;;3.92;3.60;;;;;;;;;;5117187;28;20202;-63
2024/01/19 13:24:55;;;;;;;4.75;3.75;;;;;;;;;;5118332;28;20777;-63
2024/01/19 13:27:23;;;;;;;4.10;3.70;;;;;;;;;;5118533;28;20222;-63
2024/01/19 13:29:50;;;;;;;4.00;3.60;;;;;;;;;;5118605;28;20195;-64
2024/01/19 13:32:17;;;;;;;4.20;3.80;;;;;;;;;;5117828;28;20223;-64
2024/01/19 13:34:45;;;;;;;3.78;3.47;;;;;;;;;;5117465;28;20205;-64
2024/01/19 13:37:13;;;;;;;4.20;3.80;;;;;;;;;;5117946;28;20683;-64
2024/01/19 13:39:41;;;;;;;3.90;3.50;;;;;;;;;;5117833;28;20264;-64
2024/01/19 13:42:09;;;;;;;4.13;3.72;;;;;;;;;;5118854;28;20300;-63
2024/01/19 13:44:36;;;;;;;3.67;3.38;;;;;;;;;;5118089;28;20207;-63
2024/01/19 13:47:04;;;;;;;4.25;3.85;;;;;;;;;;5118765;28;20210;-63
2024/01/19 13:49:32;;;;;;;4.15;3.72;;;;;;;;;;5117107;28;20205;-64
2024/01/19 13:51:59;;;;;;;4.30;3.90;;;;;;;;;;5118057;28;20237;-63
2024/01/19 13:54:26;;;;;;;4.07;3.67;;;;;;;;;;5116518;28;20210;-63
2024/01/19 13:56:55;;;;;;;3.83;3.53;;;;;;;;;;5117495;28;20217;-63
2024/01/19 13:59:22;;;;;;;3.70;3.40;;;;;;;;;;5117524;28;20205;-64
2024/01/19 14:01:50;;;;;;;4.10;3.53;;;;;;;;;;5115834;28;20235;-64
2024/01/19 14:04:18;;;;;;;3.65;3.35;;;;;;;;;;5117073;28;20203;-64
2024/01/19 14:06:45;;;;;;;4.22;3.83;;;;;;;;;;5117407;28;20217;-64
2024/01/19 14:09:13;;;;;;;4.40;3.90;;;;;;;;;;5117389;28;20202;-63
2024/01/19 14:11:41;;;;;;;3.95;3.55;;;;;;;;;;5117451;28;20223;-63
2024/01/19 14:14:09;;;;;;;4.10;3.70;;;;;;;;;;5118064;28;20229;-63
2024/01/19 14:16:37;;;;;;;4.10;3.70;;;;;;;;;;5117488;28;20591;-64
2024/01/19 14:19:05;;;;;;;4.28;3.88;;;;;;;;;;5116848;28;20614;-64
2024/01/19 14:21:32;;;;;;;4.68;4.22;;;;;;;;;;5117673;28;20203;-64
2024/01/19 14:23:59;;;;;;;3.65;3.35;;;;;;;;;;5118115;28;20202;-64
2024/01/19 14:26:27;;;;;;;3.72;3.40;;;;;;;;;;5116838;28;20207;-64
2024/01/19 14:28:54;;;;;;;3.67;3.38;;;;;;;;;;5117102;28;20209;-64
2024/01/19 14:31:24;;;;;;;4.13;3.72;;;;;;;;;;5116842;28;20206;-64
2024/01/19 14:33:51;;;;;;;4.18;3.75;;;;;;;;;;5117021;28;20195;-63
2024/01/19 14:36:18;;;;;;;3.85;3.40;;;;;;;;;;5117231;28;20482;-63
2024/01/19 14:38:49;;;;;;;4.10;3.70;;;;;;;;;;5117334;28;20203;-63
2024/01/19 14:41:16;;;;;;;4.13;3.72;;;;;;;;;;5117469;28;20597;-63
2024/01/19 14:43:43;;;;;;;3.30;3.00;;;;;;;;;;5116797;28;20203;-63
2024/01/19 14:46:11;;;;;;;3.75;3.45;;;;;;;;;;5116637;28;20203;-63
2024/01/19 14:48:40;;;;;;;3.90;3.60;;;;;;;;;;5116504;28;20271;-63
2024/01/19 14:51:08;;;;;;;4.15;3.70;;;;;;;;;;5117446;28;20207;-63